createdAt,value
2023-09-12T00:00:14.868Z,19.82
2023-09-12T00:03:21.314Z,19.67
2023-09-12T00:06:24.195Z,19.59
2023-09-12T00:09:26.971Z,19.54
2023-09-12T00:12:31.038Z,19.51
2023-09-12T00:15:33.738Z,19.46
2023-09-12T00:18:36.621Z,19.40
2023-09-12T00:21:39.443Z,19.32
2023-09-12T00:24:42.103Z,19.27
2023-09-12T00:27:46.092Z,19.22
2023-09-12T00:30:48.778Z,19.18
2023-09-12T00:33:51.510Z,19.18
2023-09-12T00:36:54.316Z,19.16
2023-09-12T00:39:56.916Z,19.18
2023-09-12T00:43:00.945Z,19.19
2023-09-12T00:46:03.642Z,19.20
2023-09-12T00:49:06.400Z,19.21
2023-09-12T00:52:08.985Z,19.22
2023-09-12T00:55:11.677Z,19.18
2023-09-12T00:58:15.697Z,19.19
2023-09-12T01:01:18.443Z,19.20
2023-09-12T01:04:33.979Z,19.22
2023-09-12T01:07:38.222Z,19.22
2023-09-12T01:10:40.853Z,19.21
2023-09-12T01:13:44.891Z,19.14
2023-09-12T01:16:47.532Z,19.02
2023-09-12T01:19:50.344Z,18.99
2023-09-12T01:22:59.960Z,19.01
2023-09-12T01:26:31.240Z,19.02
2023-09-12T01:29:35.277Z,18.99
2023-09-12T01:32:37.936Z,18.95
2023-09-12T01:35:40.588Z,18.89
2023-09-12T01:38:43.782Z,18.86
2023-09-12T01:41:46.676Z,18.84
2023-09-12T01:44:52.309Z,18.85
2023-09-12T01:47:55.042Z,18.85
2023-09-12T01:50:57.722Z,18.87
2023-09-12T01:54:00.374Z,18.88
2023-09-12T01:57:03.164Z,18.87
2023-09-12T02:00:09.708Z,18.86
2023-09-12T02:03:12.542Z,18.83
2023-09-12T02:06:15.358Z,18.81
2023-09-12T02:09:18.126Z,18.78
2023-09-12T02:12:20.815Z,18.73
2023-09-12T02:15:24.836Z,18.71
2023-09-12T02:18:27.601Z,18.67
2023-09-12T02:21:30.450Z,18.63
2023-09-12T02:24:33.252Z,18.59
2023-09-12T02:27:35.955Z,18.58
2023-09-12T02:30:42.368Z,18.57
2023-09-12T02:33:45.132Z,18.58
2023-09-12T02:36:47.848Z,18.58
2023-09-12T02:39:50.446Z,18.58
2023-09-12T02:42:53.089Z,18.56
2023-09-12T02:45:57.126Z,18.55
2023-09-12T02:48:59.866Z,18.53
2023-09-12T02:52:02.708Z,18.49
2023-09-12T02:55:06.091Z,18.46
2023-09-12T02:58:08.672Z,18.45
2023-09-12T03:01:18.169Z,18.44
2023-09-12T03:04:20.849Z,18.42
2023-09-12T03:07:23.521Z,18.41
2023-09-12T03:10:26.176Z,18.41
2023-09-12T03:13:30.475Z,18.40
2023-09-12T03:16:34.665Z,18.36
2023-09-12T03:19:37.369Z,18.33
2023-09-12T03:22:40.185Z,18.32
2023-09-12T03:25:42.814Z,18.32
2023-09-12T03:28:45.638Z,18.33
2023-09-12T03:31:49.808Z,18.34
2023-09-12T03:34:52.606Z,18.34
2023-09-12T03:37:55.275Z,18.35
2023-09-12T03:40:57.925Z,18.36
2023-09-12T03:44:00.572Z,18.37
2023-09-12T03:47:04.932Z,18.37
2023-09-12T03:50:09.091Z,18.39
2023-09-12T03:53:11.776Z,18.39
2023-09-12T03:56:15.228Z,18.41
2023-09-12T03:59:17.905Z,18.38
2023-09-12T04:02:22.028Z,18.34
2023-09-12T04:05:24.705Z,18.27
2023-09-12T04:08:27.409Z,18.25
2023-09-12T04:11:40.162Z,18.27
2023-09-12T04:14:51.476Z,18.28
2023-09-12T04:17:55.530Z,18.28
2023-09-12T04:20:58.861Z,18.30
2023-09-12T04:24:01.510Z,18.31
2023-09-12T04:27:04.560Z,18.31
2023-09-12T04:30:10.097Z,18.32
2023-09-12T04:33:14.417Z,18.29
2023-09-12T04:36:17.117Z,18.25
2023-09-12T04:39:19.913Z,18.22
2023-09-12T04:42:22.692Z,18.17
2023-09-12T04:45:25.446Z,18.10
2023-09-12T04:48:29.945Z,18.06
2023-09-12T04:51:32.685Z,18.04
2023-09-12T04:54:35.390Z,18.00
2023-09-12T04:57:39.929Z,17.97
2023-09-12T05:00:44.072Z,17.96
2023-09-12T05:03:48.262Z,17.97
2023-09-12T05:06:50.974Z,18.00
2023-09-12T05:09:53.757Z,18.03
2023-09-12T05:12:56.428Z,18.03
2023-09-12T05:15:59.131Z,18.02
2023-09-12T05:19:03.289Z,18.03
2023-09-12T05:22:06.053Z,18.02
2023-09-12T05:25:09.495Z,18.05
2023-09-12T05:28:12.185Z,18.10
2023-09-12T05:31:14.801Z,18.18
2023-09-12T05:34:19.238Z,18.24
2023-09-12T05:37:22.293Z,18.29
2023-09-12T05:40:24.995Z,18.35
2023-09-12T05:43:27.845Z,18.38
2023-09-12T05:46:30.512Z,18.40
2023-09-12T05:49:35.431Z,18.45
2023-09-12T05:52:38.192Z,18.48
2023-09-12T05:55:40.850Z,18.52
2023-09-12T05:58:44.178Z,18.53
2023-09-12T06:01:47.322Z,18.55
2023-09-12T06:04:51.582Z,18.53
2023-09-12T06:07:54.360Z,18.54
2023-09-12T06:10:57.419Z,18.57
2023-09-12T06:14:00.108Z,18.60
2023-09-12T06:17:03.091Z,18.59
2023-09-12T06:20:08.678Z,18.58
2023-09-12T06:23:11.508Z,18.55
2023-09-12T06:26:14.166Z,18.54
2023-09-12T06:29:16.911Z,18.55
2023-09-12T06:32:19.711Z,18.57
2023-09-12T06:35:23.724Z,18.57
2023-09-12T06:38:26.493Z,18.56
2023-09-12T06:41:29.359Z,18.59
2023-09-12T06:44:31.986Z,18.60
2023-09-12T06:47:34.781Z,18.59
2023-09-12T06:50:39.905Z,18.59
2023-09-12T06:53:42.629Z,18.66
2023-09-12T06:56:45.560Z,18.76
2023-09-12T06:59:49.149Z,18.85
2023-09-12T07:02:52.166Z,18.91
2023-09-12T07:05:56.332Z,18.97
2023-09-12T07:08:58.912Z,19.00
2023-09-12T07:12:01.576Z,19.04
2023-09-12T07:15:04.758Z,19.10
2023-09-12T07:18:07.818Z,19.17
2023-09-12T07:21:12.476Z,19.28
2023-09-12T07:24:15.225Z,19.39
2023-09-12T07:27:17.876Z,19.52
2023-09-12T07:30:20.673Z,19.59
2023-09-12T07:33:23.527Z,19.64
2023-09-12T07:36:27.636Z,19.62
2023-09-12T07:39:30.612Z,19.59
2023-09-12T07:42:33.738Z,19.56
2023-09-12T07:45:38.828Z,19.64
2023-09-12T07:48:41.681Z,19.76
2023-09-12T07:51:45.764Z,19.86
2023-09-12T07:54:48.476Z,19.97
2023-09-12T07:57:51.183Z,20.13
2023-09-12T08:00:53.989Z,20.30
2023-09-12T08:03:56.697Z,20.47
2023-09-12T08:07:01.774Z,20.60
2023-09-12T08:10:05.033Z,20.73
2023-09-12T08:13:07.708Z,20.79
2023-09-12T08:16:10.450Z,20.85
2023-09-12T08:19:15.886Z,20.81
2023-09-12T08:22:21.275Z,20.84
2023-09-12T08:25:25.578Z,20.90
2023-09-12T08:28:28.257Z,20.93
2023-09-12T08:31:30.962Z,21.01
2023-09-12T08:34:33.923Z,21.15
2023-09-12T08:37:37.961Z,21.36
2023-09-12T08:40:40.682Z,21.55
2023-09-12T08:43:44.626Z,21.73
2023-09-12T08:46:47.507Z,21.86
2023-09-12T08:49:50.301Z,21.93
2023-09-12T08:53:04.285Z,22.06
2023-09-12T08:56:09.664Z,22.23
2023-09-12T08:59:12.766Z,22.32
2023-09-12T09:02:15.486Z,22.39
2023-09-12T09:05:18.220Z,22.39
2023-09-12T09:08:23.880Z,22.35
2023-09-12T09:11:28.789Z,22.33
2023-09-12T09:14:32.016Z,22.41
2023-09-12T09:17:36.318Z,22.49
2023-09-12T09:20:42.077Z,22.50
2023-09-12T09:23:48.309Z,22.54
2023-09-12T09:26:51.648Z,22.62
2023-09-12T09:29:54.268Z,22.66
2023-09-12T09:32:56.892Z,22.75
2023-09-12T09:36:04.612Z,22.95
2023-09-12T09:39:08.923Z,23.08
2023-09-12T09:42:12.832Z,23.16
2023-09-12T09:45:15.747Z,23.21
2023-09-12T09:48:21.705Z,23.34
2023-09-12T09:51:24.414Z,23.48
2023-09-12T09:54:28.706Z,23.67
2023-09-12T09:57:31.537Z,23.86
2023-09-12T10:00:35.573Z,24.02
2023-09-12T10:03:38.669Z,24.11
2023-09-12T10:06:41.500Z,24.07
2023-09-12T10:09:45.580Z,24.03
2023-09-12T10:12:51.530Z,24.02
2023-09-12T10:15:54.301Z,23.92
2023-09-12T10:19:00.627Z,23.86
2023-09-12T10:22:06.253Z,23.85
2023-09-12T10:25:10.597Z,23.84
2023-09-12T10:28:13.228Z,23.81
2023-09-12T10:31:15.972Z,23.78
2023-09-12T10:34:19.352Z,23.76
2023-09-12T10:37:23.500Z,23.74
2023-09-12T10:40:27.663Z,23.75
2023-09-12T10:43:30.544Z,23.77
2023-09-12T10:46:33.290Z,23.77
2023-09-12T10:49:36.010Z,23.76
2023-09-12T10:52:40.895Z,23.72
2023-09-12T10:55:45.032Z,23.72
2023-09-12T10:59:13.314Z,23.71
2023-09-12T11:02:32.662Z,23.67
2023-09-12T11:05:39.098Z,23.62
2023-09-12T11:08:42.307Z,23.61
2023-09-12T11:11:47.684Z,23.57
2023-09-12T11:15:06.630Z,23.55
2023-09-12T11:18:09.509Z,23.49
2023-09-12T11:21:12.225Z,23.46
2023-09-12T11:24:14.980Z,23.43
2023-09-12T11:27:19.257Z,23.40
2023-09-12T11:30:22.161Z,23.34
2023-09-12T11:33:25.598Z,23.27
2023-09-12T11:36:28.496Z,23.22
2023-09-12T11:39:32.213Z,23.20
2023-09-12T11:42:36.322Z,23.20
2023-09-12T11:45:39.127Z,23.22
2023-09-12T11:48:41.931Z,23.26
2023-09-12T11:51:54.265Z,23.29
2023-09-12T11:54:56.991Z,23.33
2023-09-12T11:58:01.106Z,23.38
2023-09-12T12:01:04.316Z,23.35
2023-09-12T12:04:08.247Z,23.10
2023-09-12T12:07:12.405Z,22.85
2023-09-12T12:10:15.330Z,22.71
2023-09-12T12:13:19.830Z,22.59
2023-09-12T12:16:23.937Z,22.57
2023-09-12T12:19:27.935Z,22.62
2023-09-12T12:22:30.643Z,22.74
2023-09-12T12:25:34.224Z,22.84
2023-09-12T12:28:38.334Z,22.92
2023-09-12T12:31:41.149Z,22.98
2023-09-12T12:35:23.354Z,23.05
2023-09-12T12:38:08.292Z,23.13
2023-09-12T12:41:11.649Z,23.21
2023-09-12T12:44:16.961Z,23.29
2023-09-12T12:47:19.695Z,23.38
2023-09-12T12:50:22.969Z,23.45
2023-09-12T12:53:50.248Z,23.48
2023-09-12T12:56:55.373Z,23.45
2023-09-12T13:00:00.726Z,23.42
2023-09-12T13:03:04.480Z,23.46
2023-09-12T13:06:08.920Z,23.40
2023-09-12T13:09:12.474Z,23.27
2023-09-12T13:12:15.878Z,23.13
2023-09-12T13:15:20.816Z,22.99
2023-09-12T13:18:23.687Z,22.87
2023-09-12T13:21:26.437Z,22.78
2023-09-12T13:24:29.084Z,22.73
2023-09-12T13:27:31.833Z,22.67
2023-09-12T13:30:35.862Z,22.63
2023-09-12T13:33:38.541Z,22.59
2023-09-12T13:36:41.282Z,22.54
2023-09-12T13:39:48.543Z,22.54
2023-09-12T13:42:51.286Z,22.52
2023-09-12T13:45:55.294Z,22.50
2023-09-12T13:49:01.536Z,22.47
2023-09-12T13:52:04.844Z,22.45
2023-09-12T13:55:07.998Z,22.39
2023-09-12T13:58:10.757Z,22.33
2023-09-12T14:01:27.900Z,22.29
2023-09-12T14:04:34.321Z,22.23
2023-09-12T14:07:38.061Z,22.17
2023-09-12T14:10:42.235Z,22.20
2023-09-12T14:13:45.998Z,22.07
2023-09-12T14:16:50.895Z,22.01
2023-09-12T14:19:55.020Z,21.97
2023-09-12T14:22:59.247Z,21.89
2023-09-12T14:26:02.992Z,21.82
2023-09-12T14:29:06.382Z,21.81
2023-09-12T14:32:10.508Z,21.83
2023-09-12T14:35:13.081Z,21.80
2023-09-12T14:38:15.720Z,21.75
2023-09-12T14:41:18.365Z,21.72
2023-09-12T14:44:21.060Z,21.72
2023-09-12T14:47:25.279Z,21.75
2023-09-12T14:50:39.346Z,21.79
2023-09-12T14:53:45.713Z,21.87
2023-09-12T14:56:48.631Z,21.94
2023-09-12T14:59:52.517Z,21.99
2023-09-12T15:02:56.657Z,22.05
2023-09-12T15:05:59.552Z,22.08
2023-09-12T15:09:02.290Z,22.11
2023-09-12T15:12:05.454Z,22.15
2023-09-12T15:15:09.608Z,22.19
2023-09-12T15:18:13.703Z,22.22
2023-09-12T15:21:16.413Z,22.27
2023-09-12T15:24:19.082Z,22.32
2023-09-12T15:27:21.736Z,22.37
2023-09-12T15:30:24.525Z,22.42
2023-09-12T15:33:28.901Z,22.46
2023-09-12T15:36:31.723Z,22.49
2023-09-12T15:39:34.472Z,22.50
2023-09-12T15:42:38.035Z,22.53
2023-09-12T15:45:50.785Z,22.55
2023-09-12T15:48:55.930Z,22.58
2023-09-12T15:51:59.156Z,22.58
2023-09-12T15:55:01.890Z,22.60
2023-09-12T15:58:04.819Z,22.62
2023-09-12T16:01:07.661Z,22.63
2023-09-12T16:04:11.756Z,22.64
2023-09-12T16:07:14.653Z,22.64
2023-09-12T16:10:17.484Z,22.65
2023-09-12T16:13:20.123Z,22.67
2023-09-12T16:16:22.952Z,22.68
2023-09-12T16:19:27.090Z,22.67
2023-09-12T16:22:29.740Z,22.66
2023-09-12T16:25:32.403Z,22.67
2023-09-12T16:28:35.106Z,22.66
2023-09-12T16:31:38.037Z,22.65
2023-09-12T16:34:42.225Z,22.64
2023-09-12T16:37:45.350Z,22.62
2023-09-12T16:40:48.355Z,22.61
2023-09-12T16:43:51.012Z,22.60
2023-09-12T16:46:53.852Z,22.55
2023-09-12T16:49:58.292Z,22.56
2023-09-12T16:53:00.989Z,22.54
2023-09-12T16:56:03.696Z,22.51
2023-09-12T16:59:06.326Z,22.48
2023-09-12T17:02:11.319Z,22.45
2023-09-12T17:05:15.327Z,22.44
2023-09-12T17:08:18.015Z,22.39
2023-09-12T17:11:21.221Z,22.35
2023-09-12T17:14:23.848Z,22.31
2023-09-12T17:17:26.518Z,22.27
2023-09-12T17:20:30.708Z,22.25
2023-09-12T17:23:33.395Z,22.22
2023-09-12T17:26:36.088Z,22.20
2023-09-12T17:29:38.797Z,22.15
2023-09-12T17:32:41.467Z,22.10
2023-09-12T17:35:45.524Z,22.05
2023-09-12T17:38:48.529Z,22.01
2023-09-12T17:41:51.242Z,21.97
2023-09-12T17:44:53.973Z,21.92
2023-09-12T17:47:56.712Z,21.89
2023-09-12T17:51:00.767Z,21.84
2023-09-12T17:54:03.500Z,21.83
2023-09-12T17:57:06.730Z,21.80
2023-09-12T18:00:10.438Z,21.76
2023-09-12T18:03:13.220Z,21.73
2023-09-12T18:06:17.324Z,21.72
2023-09-12T18:09:19.952Z,21.69
2023-09-12T18:12:22.588Z,21.67
2023-09-12T18:15:25.774Z,21.65
2023-09-12T18:18:28.487Z,21.64
2023-09-12T18:21:32.582Z,21.61
2023-09-12T18:24:35.373Z,21.59
2023-09-12T18:27:38.176Z,21.58
2023-09-12T18:30:41.687Z,21.57
2023-09-12T18:33:44.658Z,21.54
2023-09-12T18:36:48.968Z,21.53
2023-09-12T18:39:51.680Z,21.50
2023-09-12T18:42:54.496Z,21.50
2023-09-12T18:45:57.338Z,21.48
2023-09-12T18:49:00.081Z,21.47
2023-09-12T18:52:04.152Z,21.45
2023-09-12T18:55:07.985Z,21.44
2023-09-12T18:58:11.620Z,21.42
2023-09-12T19:01:14.356Z,21.41
2023-09-12T19:04:24.648Z,21.41
2023-09-12T19:07:28.894Z,21.38
2023-09-12T19:10:31.609Z,21.36
2023-09-12T19:13:34.670Z,21.33
2023-09-12T19:16:37.325Z,21.32
2023-09-12T19:19:40.007Z,21.30
2023-09-12T19:22:43.967Z,21.27
2023-09-12T19:25:49.028Z,21.22
2023-09-12T19:28:51.768Z,21.18
2023-09-12T19:31:54.553Z,21.16
2023-09-12T19:34:57.335Z,21.14
2023-09-12T19:38:02.875Z,21.14
2023-09-12T19:41:05.735Z,21.13
2023-09-12T19:44:08.484Z,21.11
2023-09-12T19:47:11.166Z,21.11
2023-09-12T19:50:14.093Z,21.10
2023-09-12T19:53:18.388Z,21.08
2023-09-12T19:56:21.032Z,21.07
2023-09-12T19:59:23.762Z,21.06
2023-09-12T20:02:26.464Z,21.04
2023-09-12T20:05:29.179Z,21.04
2023-09-12T20:08:33.180Z,21.03
2023-09-12T20:11:35.888Z,21.03
2023-09-12T20:14:38.590Z,21.01
2023-09-12T20:17:41.625Z,21.00
2023-09-12T20:20:46.338Z,20.97
2023-09-12T20:23:50.375Z,20.96
2023-09-12T20:26:53.128Z,20.93
2023-09-12T20:29:55.946Z,20.91
2023-09-12T20:33:02.197Z,20.88
2023-09-12T20:36:05.144Z,20.85
2023-09-12T20:39:25.733Z,20.83
2023-09-12T20:42:28.378Z,20.83
2023-09-12T20:45:31.082Z,20.82
2023-09-12T20:48:36.385Z,20.80
2023-09-12T20:51:39.898Z,20.80
2023-09-12T20:54:44.008Z,20.80
2023-09-12T20:57:46.840Z,20.76
2023-09-12T21:00:49.598Z,20.74
2023-09-12T21:03:52.575Z,20.73
2023-09-12T21:06:55.454Z,20.72
2023-09-12T21:09:59.547Z,20.69
2023-09-12T21:13:03.612Z,20.64
2023-09-12T21:16:07.172Z,20.63
2023-09-12T21:19:10.002Z,20.62
2023-09-12T21:22:12.673Z,20.61
2023-09-12T21:25:16.891Z,20.60
2023-09-12T21:28:20.011Z,20.58
2023-09-12T21:31:22.883Z,20.56
2023-09-12T21:34:25.616Z,20.55
2023-09-12T21:37:28.373Z,20.51
2023-09-12T21:40:32.372Z,20.52
2023-09-12T21:43:34.974Z,20.49
2023-09-12T21:46:37.789Z,20.48
2023-09-12T21:49:40.531Z,20.46
2023-09-12T21:52:43.746Z,20.44
2023-09-12T21:55:49.128Z,20.42
2023-09-12T21:58:51.775Z,20.40
2023-09-12T22:01:54.539Z,20.38
2023-09-12T22:04:57.189Z,20.37
2023-09-12T22:07:59.875Z,20.36
2023-09-12T22:11:04.646Z,20.36
2023-09-12T22:14:07.358Z,20.36
2023-09-12T22:17:10.083Z,20.35
2023-09-12T22:20:16.703Z,20.33
2023-09-12T22:23:19.759Z,20.29
2023-09-12T22:26:23.769Z,20.24
2023-09-12T22:29:26.504Z,20.22
2023-09-12T22:32:29.439Z,20.21
2023-09-12T22:35:32.107Z,20.19
2023-09-12T22:38:35.029Z,20.16
2023-09-12T22:41:39.081Z,20.13
2023-09-12T22:44:41.840Z,20.09
2023-09-12T22:47:44.528Z,20.08
2023-09-12T22:50:48.668Z,20.06
2023-09-12T22:53:51.326Z,20.04
2023-09-12T22:56:55.263Z,20.03
2023-09-12T22:59:58.010Z,20.02
2023-09-12T23:03:00.712Z,20.00
2023-09-12T23:06:04.011Z,20.00
2023-09-12T23:09:06.745Z,19.96
2023-09-12T23:12:10.925Z,19.96
2023-09-12T23:15:13.646Z,19.95
2023-09-12T23:18:16.782Z,19.93
2023-09-12T23:21:19.409Z,19.89
2023-09-12T23:24:22.061Z,19.80
2023-09-12T23:27:26.112Z,19.75
2023-09-12T23:30:28.828Z,19.71
2023-09-12T23:33:31.462Z,19.69
2023-09-12T23:36:34.110Z,19.67
2023-09-12T23:39:36.811Z,19.65
2023-09-12T23:42:43.075Z,19.63
2023-09-12T23:45:45.780Z,19.61
2023-09-12T23:48:48.487Z,19.60
2023-09-12T23:51:51.279Z,19.59
2023-09-12T23:54:54.034Z,19.57
2023-09-12T23:57:58.187Z,19.54
